sensor_id;sensor_type;location;lat;lon;timestamp;P1;durP1;ratioP1;P2;durP2;ratioP2
22359;SDS011;11347;52.030;4.690;2022-10-16T00:00:39;1.47;;;0.60;;
22359;SDS011;11347;52.030;4.690;2022-10-16T00:03:06;4.17;;;0.70;;
22359;SDS011;11347;52.030;4.690;2022-10-16T00:05:32;3.13;;;0.70;;
22359;SDS011;11347;52.030;4.690;2022-10-16T00:08:02;2.30;;;0.50;;
22359;SDS011;11347;52.030;4.690;2022-10-16T00:10:28;2.10;;;0.60;;
22359;SDS011;11347;52.030;4.690;2022-10-16T00:12:54;1.80;;;0.50;;
22359;SDS011;11347;52.030;4.690;2022-10-16T00:15:19;2.20;;;0.50;;
22359;SDS011;11347;52.030;4.690;2022-10-16T00:17:45;1.83;;;0.50;;
22359;SDS011;11347;52.030;4.690;2022-10-16T00:20:10;1.53;;;0.50;;
22359;SDS011;11347;52.030;4.690;2022-10-16T00:22:36;2.00;;;0.80;;
22359;SDS011;11347;52.030;4.690;2022-10-16T00:25:02;0.93;;;0.50;;
22359;SDS011;11347;52.030;4.690;2022-10-16T00:27:28;1.13;;;0.57;;
22359;SDS011;11347;52.030;4.690;2022-10-16T00:29:53;1.23;;;0.50;;
22359;SDS011;11347;52.030;4.690;2022-10-16T00:32:19;2.70;;;0.53;;
22359;SDS011;11347;52.030;4.690;2022-10-16T00:34:45;4.33;;;0.80;;
22359;SDS011;11347;52.030;4.690;2022-10-16T00:37:11;2.47;;;0.67;;
22359;SDS011;11347;52.030;4.690;2022-10-16T00:39:38;2.67;;;0.70;;
22359;SDS011;11347;52.030;4.690;2022-10-16T00:42:03;3.07;;;0.70;;
22359;SDS011;11347;52.030;4.690;2022-10-16T00:47:10;2.97;;;0.90;;
22359;SDS011;11347;52.030;4.690;2022-10-16T00:49:40;2.10;;;0.70;;
22359;SDS011;11347;52.030;4.690;2022-10-16T00:52:06;1.83;;;0.97;;
22359;SDS011;11347;52.030;4.690;2022-10-16T00:54:32;1.63;;;0.60;;
22359;SDS011;11347;52.030;4.690;2022-10-16T00:56:59;3.80;;;0.60;;
22359;SDS011;11347;52.030;4.690;2022-10-16T00:59:33;2.20;;;0.60;;
22359;SDS011;11347;52.030;4.690;2022-10-16T01:02:03;1.23;;;0.57;;
22359;SDS011;11347;52.030;4.690;2022-10-16T01:04:35;1.57;;;0.63;;
22359;SDS011;11347;52.030;4.690;2022-10-16T01:07:06;5.30;;;0.80;;
22359;SDS011;11347;52.030;4.690;2022-10-16T01:14:57;2.80;;;0.60;;
22359;SDS011;11347;52.030;4.690;2022-10-16T01:17:31;2.07;;;0.60;;
22359;SDS011;11347;52.030;4.690;2022-10-16T01:22:56;2.03;;;0.63;;
22359;SDS011;11347;52.030;4.690;2022-10-16T01:25:56;1.47;;;0.50;;
22359;SDS011;11347;52.030;4.690;2022-10-16T01:29:13;1.37;;;0.73;;
22359;SDS011;11347;52.030;4.690;2022-10-16T01:31:23;1.70;;;0.70;;
22359;SDS011;11347;52.030;4.690;2022-10-16T01:33:54;3.40;;;0.70;;
22359;SDS011;11347;52.030;4.690;2022-10-16T01:36:26;1.07;;;0.60;;
22359;SDS011;11347;52.030;4.690;2022-10-16T01:39:00;2.13;;;0.80;;
22359;SDS011;11347;52.030;4.690;2022-10-16T01:41:31;1.33;;;0.60;;
22359;SDS011;11347;52.030;4.690;2022-10-16T01:44:02;1.63;;;0.70;;
22359;SDS011;11347;52.030;4.690;2022-10-16T01:46:32;2.80;;;0.70;;
22359;SDS011;11347;52.030;4.690;2022-10-16T01:49:00;0.90;;;0.50;;
22359;SDS011;11347;52.030;4.690;2022-10-16T01:51:28;2.37;;;0.63;;
22359;SDS011;11347;52.030;4.690;2022-10-16T01:53:55;1.33;;;0.60;;
22359;SDS011;11347;52.030;4.690;2022-10-16T01:56:24;2.37;;;0.63;;
22359;SDS011;11347;52.030;4.690;2022-10-16T01:59:07;0.93;;;0.50;;
22359;SDS011;11347;52.030;4.690;2022-10-16T02:01:36;3.03;;;0.70;;
22359;SDS011;11347;52.030;4.690;2022-10-16T02:04:09;1.83;;;0.90;;
22359;SDS011;11347;52.030;4.690;2022-10-16T02:06:43;1.53;;;0.60;;
22359;SDS011;11347;52.030;4.690;2022-10-16T02:09:09;1.33;;;0.57;;
22359;SDS011;11347;52.030;4.690;2022-10-16T02:11:35;1.57;;;0.60;;
22359;SDS011;11347;52.030;4.690;2022-10-16T02:14:02;0.73;;;0.53;;
22359;SDS011;11347;52.030;4.690;2022-10-16T02:16:43;2.40;;;0.60;;
22359;SDS011;11347;52.030;4.690;2022-10-16T02:19:10;2.57;;;0.60;;
22359;SDS011;11347;52.030;4.690;2022-10-16T02:21:51;2.47;;;0.70;;
22359;SDS011;11347;52.030;4.690;2022-10-16T02:29:43;1.67;;;0.60;;
22359;SDS011;11347;52.030;4.690;2022-10-16T02:32:15;1.93;;;0.80;;
22359;SDS011;11347;52.030;4.690;2022-10-16T02:34:46;1.60;;;0.53;;
22359;SDS011;11347;52.030;4.690;2022-10-16T02:37:14;1.23;;;0.57;;
22359;SDS011;11347;52.030;4.690;2022-10-16T02:39:40;1.20;;;0.53;;
22359;SDS011;11347;52.030;4.690;2022-10-16T02:42:10;3.30;;;0.80;;
22359;SDS011;11347;52.030;4.690;2022-10-16T02:44:37;3.20;;;0.63;;
22359;SDS011;11347;52.030;4.690;2022-10-16T02:47:02;2.47;;;0.83;;
22359;SDS011;11347;52.030;4.690;2022-10-16T02:49:28;2.03;;;0.70;;
22359;SDS011;11347;52.030;4.690;2022-10-16T02:51:54;1.07;;;0.60;;
22359;SDS011;11347;52.030;4.690;2022-10-16T02:54:19;2.40;;;0.60;;
22359;SDS011;11347;52.030;4.690;2022-10-16T02:56:45;0.97;;;0.57;;
22359;SDS011;11347;52.030;4.690;2022-10-16T02:59:11;1.60;;;0.63;;
22359;SDS011;11347;52.030;4.690;2022-10-16T03:01:36;0.77;;;0.60;;
22359;SDS011;11347;52.030;4.690;2022-10-16T03:04:02;2.10;;;0.70;;
22359;SDS011;11347;52.030;4.690;2022-10-16T03:06:27;1.50;;;0.60;;
22359;SDS011;11347;52.030;4.690;2022-10-16T03:08:53;1.90;;;0.70;;
22359;SDS011;11347;52.030;4.690;2022-10-16T03:11:19;1.80;;;0.70;;
22359;SDS011;11347;52.030;4.690;2022-10-16T03:13:44;1.10;;;0.40;;
22359;SDS011;11347;52.030;4.690;2022-10-16T03:16:10;1.27;;;0.60;;
22359;SDS011;11347;52.030;4.690;2022-10-16T03:18:35;1.30;;;0.70;;
22359;SDS011;11347;52.030;4.690;2022-10-16T03:21:01;1.30;;;0.87;;
22359;SDS011;11347;52.030;4.690;2022-10-16T03:23:26;6.83;;;0.70;;
22359;SDS011;11347;52.030;4.690;2022-10-16T03:25:52;2.23;;;0.67;;
22359;SDS011;11347;52.030;4.690;2022-10-16T03:28:18;2.00;;;0.70;;
22359;SDS011;11347;52.030;4.690;2022-10-16T03:30:44;1.90;;;0.80;;
22359;SDS011;11347;52.030;4.690;2022-10-16T03:33:10;1.00;;;0.50;;
22359;SDS011;11347;52.030;4.690;2022-10-16T03:35:35;1.17;;;0.50;;
22359;SDS011;11347;52.030;4.690;2022-10-16T03:38:01;1.87;;;0.60;;
22359;SDS011;11347;52.030;4.690;2022-10-16T03:40:26;0.93;;;0.70;;
22359;SDS011;11347;52.030;4.690;2022-10-16T03:42:52;2.13;;;0.80;;
22359;SDS011;11347;52.030;4.690;2022-10-16T03:45:21;1.87;;;0.67;;
22359;SDS011;11347;52.030;4.690;2022-10-16T03:47:47;0.83;;;0.60;;
22359;SDS011;11347;52.030;4.690;2022-10-16T03:50:12;1.60;;;0.60;;
22359;SDS011;11347;52.030;4.690;2022-10-16T03:52:38;1.10;;;0.50;;
22359;SDS011;11347;52.030;4.690;2022-10-16T03:55:03;3.57;;;1.00;;
22359;SDS011;11347;52.030;4.690;2022-10-16T03:57:29;2.00;;;0.70;;
22359;SDS011;11347;52.030;4.690;2022-10-16T03:59:55;2.43;;;0.60;;
22359;SDS011;11347;52.030;4.690;2022-10-16T04:02:20;1.83;;;0.60;;
22359;SDS011;11347;52.030;4.690;2022-10-16T04:04:46;1.27;;;0.53;;
22359;SDS011;11347;52.030;4.690;2022-10-16T04:07:11;1.13;;;0.60;;
22359;SDS011;11347;52.030;4.690;2022-10-16T04:09:37;1.43;;;0.77;;
22359;SDS011;11347;52.030;4.690;2022-10-16T04:12:02;1.50;;;0.67;;
22359;SDS011;11347;52.030;4.690;2022-10-16T04:14:28;2.07;;;0.60;;
22359;SDS011;11347;52.030;4.690;2022-10-16T04:16:53;1.83;;;0.70;;
22359;SDS011;11347;52.030;4.690;2022-10-16T04:19:19;3.63;;;0.97;;
22359;SDS011;11347;52.030;4.690;2022-10-16T04:21:44;3.53;;;1.00;;
22359;SDS011;11347;52.030;4.690;2022-10-16T04:24:10;0.97;;;0.60;;
22359;SDS011;11347;52.030;4.690;2022-10-16T04:26:36;1.43;;;0.63;;
22359;SDS011;11347;52.030;4.690;2022-10-16T04:29:02;2.07;;;0.60;;
22359;SDS011;11347;52.030;4.690;2022-10-16T04:31:28;1.67;;;0.70;;
22359;SDS011;11347;52.030;4.690;2022-10-16T04:33:53;1.80;;;0.70;;
22359;SDS011;11347;52.030;4.690;2022-10-16T04:36:19;1.90;;;0.60;;
22359;SDS011;11347;52.030;4.690;2022-10-16T04:38:44;2.27;;;0.67;;
22359;SDS011;11347;52.030;4.690;2022-10-16T04:41:10;1.90;;;0.70;;
22359;SDS011;11347;52.030;4.690;2022-10-16T04:43:35;3.10;;;0.70;;
22359;SDS011;11347;52.030;4.690;2022-10-16T04:46:01;1.93;;;0.67;;
22359;SDS011;11347;52.030;4.690;2022-10-16T04:48:29;1.37;;;0.50;;
22359;SDS011;11347;52.030;4.690;2022-10-16T04:50:55;1.37;;;0.50;;
22359;SDS011;11347;52.030;4.690;2022-10-16T04:53:21;2.70;;;0.60;;
22359;SDS011;11347;52.030;4.690;2022-10-16T04:55:46;3.23;;;0.70;;
22359;SDS011;11347;52.030;4.690;2022-10-16T04:58:12;1.87;;;0.60;;
22359;SDS011;11347;52.030;4.690;2022-10-16T05:00:38;3.73;;;0.60;;
22359;SDS011;11347;52.030;4.690;2022-10-16T05:03:03;1.97;;;0.70;;
22359;SDS011;11347;52.030;4.690;2022-10-16T05:05:32;2.87;;;0.73;;
22359;SDS011;11347;52.030;4.690;2022-10-16T05:07:58;1.30;;;0.63;;
22359;SDS011;11347;52.030;4.690;2022-10-16T05:10:24;3.07;;;0.77;;
22359;SDS011;11347;52.030;4.690;2022-10-16T05:12:49;0.87;;;0.50;;
22359;SDS011;11347;52.030;4.690;2022-10-16T05:15:16;2.47;;;0.67;;
22359;SDS011;11347;52.030;4.690;2022-10-16T05:17:42;1.90;;;0.70;;
22359;SDS011;11347;52.030;4.690;2022-10-16T05:20:07;2.00;;;0.67;;
22359;SDS011;11347;52.030;4.690;2022-10-16T05:22:33;2.10;;;0.70;;
22359;SDS011;11347;52.030;4.690;2022-10-16T05:24:58;4.97;;;1.03;;
22359;SDS011;11347;52.030;4.690;2022-10-16T05:27:24;1.87;;;0.60;;
22359;SDS011;11347;52.030;4.690;2022-10-16T05:29:50;1.83;;;0.53;;
22359;SDS011;11347;52.030;4.690;2022-10-16T05:32:15;4.23;;;0.67;;
22359;SDS011;11347;52.030;4.690;2022-10-16T05:34:42;2.60;;;0.80;;
22359;SDS011;11347;52.030;4.690;2022-10-16T05:37:08;2.73;;;0.80;;
22359;SDS011;11347;52.030;4.690;2022-10-16T05:39:34;1.80;;;0.77;;
22359;SDS011;11347;52.030;4.690;2022-10-16T05:42:01;1.73;;;0.80;;
22359;SDS011;11347;52.030;4.690;2022-10-16T05:44:27;0.90;;;0.60;;
22359;SDS011;11347;52.030;4.690;2022-10-16T05:46:53;1.70;;;0.80;;
22359;SDS011;11347;52.030;4.690;2022-10-16T05:49:18;2.80;;;0.53;;
22359;SDS011;11347;52.030;4.690;2022-10-16T05:51:44;2.63;;;0.50;;
22359;SDS011;11347;52.030;4.690;2022-10-16T05:54:09;1.80;;;0.50;;
22359;SDS011;11347;52.030;4.690;2022-10-16T05:56:35;1.83;;;0.57;;
22359;SDS011;11347;52.030;4.690;2022-10-16T05:59:00;2.10;;;0.57;;
22359;SDS011;11347;52.030;4.690;2022-10-16T06:01:28;1.63;;;0.70;;
22359;SDS011;11347;52.030;4.690;2022-10-16T06:03:55;2.80;;;0.70;;
22359;SDS011;11347;52.030;4.690;2022-10-16T06:06:22;4.03;;;0.60;;
22359;SDS011;11347;52.030;4.690;2022-10-16T06:08:50;1.93;;;0.50;;
22359;SDS011;11347;52.030;4.690;2022-10-16T06:11:17;2.50;;;0.60;;
22359;SDS011;11347;52.030;4.690;2022-10-16T06:13:48;2.47;;;0.47;;
22359;SDS011;11347;52.030;4.690;2022-10-16T06:16:15;1.40;;;0.50;;
22359;SDS011;11347;52.030;4.690;2022-10-16T06:18:40;1.30;;;0.50;;
22359;SDS011;11347;52.030;4.690;2022-10-16T06:21:14;2.20;;;0.80;;
22359;SDS011;11347;52.030;4.690;2022-10-16T06:23:43;4.30;;;1.00;;
22359;SDS011;11347;52.030;4.690;2022-10-16T06:26:12;3.37;;;0.90;;
22359;SDS011;11347;52.030;4.690;2022-10-16T06:28:38;1.70;;;0.40;;
22359;SDS011;11347;52.030;4.690;2022-10-16T06:31:05;2.23;;;0.70;;
22359;SDS011;11347;52.030;4.690;2022-10-16T06:33:32;2.40;;;0.57;;
22359;SDS011;11347;52.030;4.690;2022-10-16T06:36:05;1.77;;;0.60;;
22359;SDS011;11347;52.030;4.690;2022-10-16T06:38:31;3.07;;;0.80;;
22359;SDS011;11347;52.030;4.690;2022-10-16T06:40:57;1.60;;;0.73;;
22359;SDS011;11347;52.030;4.690;2022-10-16T06:43:23;3.10;;;0.73;;
22359;SDS011;11347;52.030;4.690;2022-10-16T06:45:53;4.63;;;0.73;;
22359;SDS011;11347;52.030;4.690;2022-10-16T06:48:19;2.07;;;0.60;;
22359;SDS011;11347;52.030;4.690;2022-10-16T06:50:55;1.83;;;0.70;;
22359;SDS011;11347;52.030;4.690;2022-10-16T06:53:30;1.37;;;0.60;;
22359;SDS011;11347;52.030;4.690;2022-10-16T06:55:58;2.83;;;0.50;;
22359;SDS011;11347;52.030;4.690;2022-10-16T06:58:30;2.00;;;0.60;;
22359;SDS011;11347;52.030;4.690;2022-10-16T07:00:56;4.00;;;0.60;;
22359;SDS011;11347;52.030;4.690;2022-10-16T07:03:22;2.27;;;0.60;;
22359;SDS011;11347;52.030;4.690;2022-10-16T07:05:47;2.53;;;0.63;;
22359;SDS011;11347;52.030;4.690;2022-10-16T07:08:13;5.67;;;1.10;;
22359;SDS011;11347;52.030;4.690;2022-10-16T07:10:38;2.43;;;0.80;;
22359;SDS011;11347;52.030;4.690;2022-10-16T07:13:04;2.37;;;0.70;;
22359;SDS011;11347;52.030;4.690;2022-10-16T07:15:30;3.50;;;0.57;;
22359;SDS011;11347;52.030;4.690;2022-10-16T07:17:55;2.07;;;0.80;;
22359;SDS011;11347;52.030;4.690;2022-10-16T07:20:21;4.10;;;0.70;;
22359;SDS011;11347;52.030;4.690;2022-10-16T07:22:46;2.40;;;0.83;;
22359;SDS011;11347;52.030;4.690;2022-10-16T07:25:12;2.93;;;0.70;;
22359;SDS011;11347;52.030;4.690;2022-10-16T07:27:38;3.17;;;0.67;;
22359;SDS011;11347;52.030;4.690;2022-10-16T07:30:04;2.23;;;0.70;;
22359;SDS011;11347;52.030;4.690;2022-10-16T07:32:31;6.23;;;0.87;;
22359;SDS011;11347;52.030;4.690;2022-10-16T07:34:56;2.23;;;1.00;;
22359;SDS011;11347;52.030;4.690;2022-10-16T07:37:22;4.53;;;1.10;;
22359;SDS011;11347;52.030;4.690;2022-10-16T07:39:47;2.93;;;1.00;;
22359;SDS011;11347;52.030;4.690;2022-10-16T07:42:13;6.57;;;0.70;;
22359;SDS011;11347;52.030;4.690;2022-10-16T07:44:39;4.47;;;0.93;;
22359;SDS011;11347;52.030;4.690;2022-10-16T07:47:05;3.97;;;0.90;;
22359;SDS011;11347;52.030;4.690;2022-10-16T07:49:32;2.70;;;0.77;;
22359;SDS011;11347;52.030;4.690;2022-10-16T07:51:57;2.70;;;0.97;;
22359;SDS011;11347;52.030;4.690;2022-10-16T07:54:23;3.27;;;0.90;;
22359;SDS011;11347;52.030;4.690;2022-10-16T07:56:49;2.13;;;0.90;;
22359;SDS011;11347;52.030;4.690;2022-10-16T07:59:14;2.63;;;0.97;;
22359;SDS011;11347;52.030;4.690;2022-10-16T08:01:40;3.50;;;1.00;;
22359;SDS011;11347;52.030;4.690;2022-10-16T08:04:07;2.37;;;0.77;;
22359;SDS011;11347;52.030;4.690;2022-10-16T08:06:37;3.80;;;0.87;;
22359;SDS011;11347;52.030;4.690;2022-10-16T08:09:04;3.50;;;0.80;;
22359;SDS011;11347;52.030;4.690;2022-10-16T08:11:30;2.03;;;0.80;;
22359;SDS011;11347;52.030;4.690;2022-10-16T08:13:56;3.80;;;0.83;;
22359;SDS011;11347;52.030;4.690;2022-10-16T08:16:22;2.80;;;1.00;;
22359;SDS011;11347;52.030;4.690;2022-10-16T08:18:47;2.43;;;0.80;;
22359;SDS011;11347;52.030;4.690;2022-10-16T08:21:14;4.03;;;0.93;;
22359;SDS011;11347;52.030;4.690;2022-10-16T08:23:41;2.57;;;0.50;;
22359;SDS011;11347;52.030;4.690;2022-10-16T08:26:07;3.03;;;0.80;;
22359;SDS011;11347;52.030;4.690;2022-10-16T08:28:34;5.07;;;0.93;;
22359;SDS011;11347;52.030;4.690;2022-10-16T08:31:07;1.70;;;0.70;;
22359;SDS011;11347;52.030;4.690;2022-10-16T08:33:34;4.00;;;1.00;;
22359;SDS011;11347;52.030;4.690;2022-10-16T08:36:00;2.27;;;0.73;;
22359;SDS011;11347;52.030;4.690;2022-10-16T08:38:26;2.83;;;0.70;;
22359;SDS011;11347;52.030;4.690;2022-10-16T08:40:52;4.10;;;0.80;;
22359;SDS011;11347;52.030;4.690;2022-10-16T08:43:43;3.10;;;0.80;;
22359;SDS011;11347;52.030;4.690;2022-10-16T08:46:28;3.30;;;0.60;;
22359;SDS011;11347;52.030;4.690;2022-10-16T08:49:13;4.60;;;1.00;;
22359;SDS011;11347;52.030;4.690;2022-10-16T08:51:39;4.17;;;0.93;;
22359;SDS011;11347;52.030;4.690;2022-10-16T08:54:06;4.07;;;1.00;;
22359;SDS011;11347;52.030;4.690;2022-10-16T08:56:38;4.23;;;1.00;;
22359;SDS011;11347;52.030;4.690;2022-10-16T08:59:03;4.07;;;1.00;;
22359;SDS011;11347;52.030;4.690;2022-10-16T09:01:41;3.17;;;1.00;;
22359;SDS011;11347;52.030;4.690;2022-10-16T09:07:02;3.67;;;0.90;;
22359;SDS011;11347;52.030;4.690;2022-10-16T09:09:49;4.10;;;0.90;;
22359;SDS011;11347;52.030;4.690;2022-10-16T09:15:32;5.40;;;1.00;;
22359;SDS011;11347;52.030;4.690;2022-10-16T09:18:12;2.03;;;0.73;;
22359;SDS011;11347;52.030;4.690;2022-10-16T09:21:16;4.17;;;1.00;;
22359;SDS011;11347;52.030;4.690;2022-10-16T09:23:46;3.13;;;1.00;;
22359;SDS011;11347;52.030;4.690;2022-10-16T09:26:13;4.90;;;1.00;;
22359;SDS011;11347;52.030;4.690;2022-10-16T09:28:41;5.20;;;1.17;;
22359;SDS011;11347;52.030;4.690;2022-10-16T09:31:17;5.03;;;1.00;;
22359;SDS011;11347;52.030;4.690;2022-10-16T09:33:47;5.37;;;1.07;;
22359;SDS011;11347;52.030;4.690;2022-10-16T09:36:31;5.60;;;1.00;;
22359;SDS011;11347;52.030;4.690;2022-10-16T09:39:10;7.37;;;1.03;;
22359;SDS011;11347;52.030;4.690;2022-10-16T09:41:37;7.63;;;1.10;;
22359;SDS011;11347;52.030;4.690;2022-10-16T09:49:29;3.47;;;0.90;;
22359;SDS011;11347;52.030;4.690;2022-10-16T09:52:14;5.23;;;1.20;;
22359;SDS011;11347;52.030;4.690;2022-10-16T09:57:15;3.23;;;0.70;;
22359;SDS011;11347;52.030;4.690;2022-10-16T10:00:16;5.47;;;0.90;;
22359;SDS011;11347;52.030;4.690;2022-10-16T10:02:34;5.37;;;0.93;;
22359;SDS011;11347;52.030;4.690;2022-10-16T10:05:01;3.13;;;1.00;;
22359;SDS011;11347;52.030;4.690;2022-10-16T10:07:33;3.23;;;0.90;;
22359;SDS011;11347;52.030;4.690;2022-10-16T10:10:04;3.20;;;0.97;;
22359;SDS011;11347;52.030;4.690;2022-10-16T10:12:31;3.87;;;0.90;;
22359;SDS011;11347;52.030;4.690;2022-10-16T10:15:04;2.97;;;0.80;;
22359;SDS011;11347;52.030;4.690;2022-10-16T10:17:45;4.47;;;1.00;;
22359;SDS011;11347;52.030;4.690;2022-10-16T10:22:47;8.63;;;1.00;;
22359;SDS011;11347;52.030;4.690;2022-10-16T10:33:08;7.57;;;1.20;;
22359;SDS011;11347;52.030;4.690;2022-10-16T10:35:57;5.27;;;1.20;;
22359;SDS011;11347;52.030;4.690;2022-10-16T10:44:33;4.17;;;1.43;;
22359;SDS011;11347;52.030;4.690;2022-10-16T11:01:01;4.63;;;1.00;;
22359;SDS011;11347;52.030;4.690;2022-10-16T11:06:50;5.27;;;0.90;;
22359;SDS011;11347;52.030;4.690;2022-10-16T11:09:53;3.20;;;1.00;;
22359;SDS011;11347;52.030;4.690;2022-10-16T11:12:42;3.73;;;0.90;;
22359;SDS011;11347;52.030;4.690;2022-10-16T11:15:12;4.27;;;1.00;;
22359;SDS011;11347;52.030;4.690;2022-10-16T11:17:44;2.83;;;0.87;;
22359;SDS011;11347;52.030;4.690;2022-10-16T11:20:16;5.93;;;0.80;;
22359;SDS011;11347;52.030;4.690;2022-10-16T11:25:32;6.23;;;1.10;;
22359;SDS011;11347;52.030;4.690;2022-10-16T11:30:30;5.33;;;1.20;;
22359;SDS011;11347;52.030;4.690;2022-10-16T11:35:44;3.73;;;0.73;;
22359;SDS011;11347;52.030;4.690;2022-10-16T11:38:49;4.70;;;1.00;;
22359;SDS011;11347;52.030;4.690;2022-10-16T11:41:27;5.67;;;1.20;;
22359;SDS011;11347;52.030;4.690;2022-10-16T11:46:38;6.23;;;1.20;;
22359;SDS011;11347;52.030;4.690;2022-10-16T11:49:11;3.20;;;1.10;;
22359;SDS011;11347;52.030;4.690;2022-10-16T11:51:43;6.60;;;1.30;;
22359;SDS011;11347;52.030;4.690;2022-10-16T11:57:16;4.70;;;1.17;;
22359;SDS011;11347;52.030;4.690;2022-10-16T11:59:58;6.07;;;1.17;;
22359;SDS011;11347;52.030;4.690;2022-10-16T12:02:39;5.03;;;1.30;;
22359;SDS011;11347;52.030;4.690;2022-10-16T12:05:22;4.73;;;0.97;;
22359;SDS011;11347;52.030;4.690;2022-10-16T12:08:17;5.93;;;1.03;;
22359;SDS011;11347;52.030;4.690;2022-10-16T12:10:44;6.00;;;1.23;;
22359;SDS011;11347;52.030;4.690;2022-10-16T12:18:37;5.93;;;1.10;;
22359;SDS011;11347;52.030;4.690;2022-10-16T12:21:07;5.40;;;1.07;;
22359;SDS011;11347;52.030;4.690;2022-10-16T12:23:37;5.00;;;1.00;;
22359;SDS011;11347;52.030;4.690;2022-10-16T12:26:24;4.87;;;1.20;;
22359;SDS011;11347;52.030;4.690;2022-10-16T12:34:51;9.23;;;1.23;;
22359;SDS011;11347;52.030;4.690;2022-10-16T12:39:48;3.53;;;1.20;;
22359;SDS011;11347;52.030;4.690;2022-10-16T12:44:46;6.53;;;1.00;;
22359;SDS011;11347;52.030;4.690;2022-10-16T12:47:35;4.17;;;0.90;;
22359;SDS011;11347;52.030;4.690;2022-10-16T12:50:02;5.13;;;1.20;;
22359;SDS011;11347;52.030;4.690;2022-10-16T12:52:46;4.43;;;1.00;;
22359;SDS011;11347;52.030;4.690;2022-10-16T12:55:16;6.17;;;0.90;;
22359;SDS011;11347;52.030;4.690;2022-10-16T13:05:57;5.57;;;0.93;;
22359;SDS011;11347;52.030;4.690;2022-10-16T13:30:31;6.37;;;1.17;;
22359;SDS011;11347;52.030;4.690;2022-10-16T13:33:06;6.43;;;1.20;;
22359;SDS011;11347;52.030;4.690;2022-10-16T13:35:46;5.70;;;1.07;;
22359;SDS011;11347;52.030;4.690;2022-10-16T13:38:15;5.43;;;1.00;;
22359;SDS011;11347;52.030;4.690;2022-10-16T13:43:35;5.67;;;1.20;;
22359;SDS011;11347;52.030;4.690;2022-10-16T13:46:12;6.83;;;1.33;;
22359;SDS011;11347;52.030;4.690;2022-10-16T13:48:40;4.03;;;1.00;;
22359;SDS011;11347;52.030;4.690;2022-10-16T13:53:43;3.70;;;0.90;;
22359;SDS011;11347;52.030;4.690;2022-10-16T13:56:11;4.63;;;1.00;;
22359;SDS011;11347;52.030;4.690;2022-10-16T13:58:42;4.23;;;1.20;;
22359;SDS011;11347;52.030;4.690;2022-10-16T14:01:16;5.20;;;1.30;;
22359;SDS011;11347;52.030;4.690;2022-10-16T14:03:45;5.17;;;1.13;;
22359;SDS011;11347;52.030;4.690;2022-10-16T14:06:13;3.80;;;0.87;;
22359;SDS011;11347;52.030;4.690;2022-10-16T14:08:46;3.97;;;0.90;;
22359;SDS011;11347;52.030;4.690;2022-10-16T14:11:20;6.33;;;1.30;;
22359;SDS011;11347;52.030;4.690;2022-10-16T14:13:49;3.47;;;0.90;;
22359;SDS011;11347;52.030;4.690;2022-10-16T14:16:19;6.43;;;0.90;;
22359;SDS011;11347;52.030;4.690;2022-10-16T14:18:58;4.10;;;0.80;;
22359;SDS011;11347;52.030;4.690;2022-10-16T14:21:26;6.00;;;1.17;;
22359;SDS011;11347;52.030;4.690;2022-10-16T14:23:52;3.37;;;1.00;;
22359;SDS011;11347;52.030;4.690;2022-10-16T14:26:20;8.40;;;1.10;;
22359;SDS011;11347;52.030;4.690;2022-10-16T14:29:01;4.60;;;1.10;;
22359;SDS011;11347;52.030;4.690;2022-10-16T14:31:34;7.33;;;1.10;;
22359;SDS011;11347;52.030;4.690;2022-10-16T14:34:02;4.03;;;1.00;;
22359;SDS011;11347;52.030;4.690;2022-10-16T14:36:28;4.20;;;1.07;;
22359;SDS011;11347;52.030;4.690;2022-10-16T14:41:45;5.80;;;1.87;;
22359;SDS011;11347;52.030;4.690;2022-10-16T14:44:12;6.47;;;1.20;;
22359;SDS011;11347;52.030;4.690;2022-10-16T14:46:39;4.17;;;1.10;;
22359;SDS011;11347;52.030;4.690;2022-10-16T14:51:36;5.37;;;1.50;;
22359;SDS011;11347;52.030;4.690;2022-10-16T14:54:03;6.93;;;1.47;;
22359;SDS011;11347;52.030;4.690;2022-10-16T14:56:30;6.83;;;1.40;;
22359;SDS011;11347;52.030;4.690;2022-10-16T14:59:00;6.67;;;1.23;;
22359;SDS011;11347;52.030;4.690;2022-10-16T15:01:26;5.17;;;1.20;;
22359;SDS011;11347;52.030;4.690;2022-10-16T15:03:52;6.23;;;1.23;;
22359;SDS011;11347;52.030;4.690;2022-10-16T15:06:19;5.83;;;1.30;;
22359;SDS011;11347;52.030;4.690;2022-10-16T15:08:45;3.47;;;1.10;;
22359;SDS011;11347;52.030;4.690;2022-10-16T15:11:12;5.53;;;1.20;;
22359;SDS011;11347;52.030;4.690;2022-10-16T15:13:39;5.70;;;1.07;;
22359;SDS011;11347;52.030;4.690;2022-10-16T15:16:07;3.47;;;0.90;;
22359;SDS011;11347;52.030;4.690;2022-10-16T15:18:35;3.73;;;0.90;;
22359;SDS011;11347;52.030;4.690;2022-10-16T15:21:01;3.70;;;1.00;;
22359;SDS011;11347;52.030;4.690;2022-10-16T15:23:26;3.23;;;0.90;;
22359;SDS011;11347;52.030;4.690;2022-10-16T15:25:53;6.80;;;1.13;;
22359;SDS011;11347;52.030;4.690;2022-10-16T15:28:20;7.13;;;1.27;;
22359;SDS011;11347;52.030;4.690;2022-10-16T15:30:49;4.57;;;1.20;;
22359;SDS011;11347;52.030;4.690;2022-10-16T15:33:20;5.20;;;1.37;;
22359;SDS011;11347;52.030;4.690;2022-10-16T15:35:51;5.90;;;1.30;;
22359;SDS011;11347;52.030;4.690;2022-10-16T15:38:18;4.47;;;1.30;;
22359;SDS011;11347;52.030;4.690;2022-10-16T15:40:45;7.60;;;1.40;;
22359;SDS011;11347;52.030;4.690;2022-10-16T15:43:12;6.53;;;1.30;;
22359;SDS011;11347;52.030;4.690;2022-10-16T15:45:37;4.20;;;1.20;;
22359;SDS011;11347;52.030;4.690;2022-10-16T15:48:03;4.17;;;1.20;;
22359;SDS011;11347;52.030;4.690;2022-10-16T15:50:29;4.70;;;1.40;;
22359;SDS011;11347;52.030;4.690;2022-10-16T15:52:56;3.00;;;0.80;;
22359;SDS011;11347;52.030;4.690;2022-10-16T15:55:22;4.87;;;1.30;;
22359;SDS011;11347;52.030;4.690;2022-10-16T15:57:48;4.67;;;1.23;;
22359;SDS011;11347;52.030;4.690;2022-10-16T16:00:14;3.93;;;1.10;;
22359;SDS011;11347;52.030;4.690;2022-10-16T16:02:42;4.37;;;1.37;;
22359;SDS011;11347;52.030;4.690;2022-10-16T16:05:09;4.33;;;1.20;;
22359;SDS011;11347;52.030;4.690;2022-10-16T16:07:36;4.97;;;1.30;;
22359;SDS011;11347;52.030;4.690;2022-10-16T16:10:03;5.63;;;1.47;;
22359;SDS011;11347;52.030;4.690;2022-10-16T16:12:31;4.77;;;1.30;;
22359;SDS011;11347;52.030;4.690;2022-10-16T16:14:57;7.00;;;1.80;;
22359;SDS011;11347;52.030;4.690;2022-10-16T16:17:22;6.03;;;1.33;;
22359;SDS011;11347;52.030;4.690;2022-10-16T16:19:49;4.93;;;1.40;;
22359;SDS011;11347;52.030;4.690;2022-10-16T16:22:15;6.77;;;1.70;;
22359;SDS011;11347;52.030;4.690;2022-10-16T16:24:40;5.17;;;1.47;;
22359;SDS011;11347;52.030;4.690;2022-10-16T16:27:06;5.57;;;1.60;;
22359;SDS011;11347;52.030;4.690;2022-10-16T16:29:32;5.30;;;1.27;;
22359;SDS011;11347;52.030;4.690;2022-10-16T16:31:58;4.63;;;1.40;;
22359;SDS011;11347;52.030;4.690;2022-10-16T16:34:25;6.17;;;1.53;;
22359;SDS011;11347;52.030;4.690;2022-10-16T16:36:54;7.33;;;1.57;;
22359;SDS011;11347;52.030;4.690;2022-10-16T16:39:21;6.50;;;1.50;;
22359;SDS011;11347;52.030;4.690;2022-10-16T16:41:47;6.67;;;1.73;;
22359;SDS011;11347;52.030;4.690;2022-10-16T16:44:12;4.77;;;1.40;;
22359;SDS011;11347;52.030;4.690;2022-10-16T16:46:39;5.23;;;1.50;;
22359;SDS011;11347;52.030;4.690;2022-10-16T16:49:05;8.40;;;1.80;;
22359;SDS011;11347;52.030;4.690;2022-10-16T16:51:31;5.00;;;1.73;;
22359;SDS011;11347;52.030;4.690;2022-10-16T16:53:58;6.57;;;2.00;;
22359;SDS011;11347;52.030;4.690;2022-10-16T16:56:24;5.63;;;1.73;;
22359;SDS011;11347;52.030;4.690;2022-10-16T16:58:51;8.63;;;1.80;;
22359;SDS011;11347;52.030;4.690;2022-10-16T17:01:18;6.70;;;1.83;;
22359;SDS011;11347;52.030;4.690;2022-10-16T17:03:45;5.40;;;1.77;;
22359;SDS011;11347;52.030;4.690;2022-10-16T17:06:14;5.53;;;2.00;;
22359;SDS011;11347;52.030;4.690;2022-10-16T17:08:40;4.77;;;1.70;;
22359;SDS011;11347;52.030;4.690;2022-10-16T17:11:06;9.60;;;2.10;;
22359;SDS011;11347;52.030;4.690;2022-10-16T17:13:36;4.33;;;1.73;;